Terminal Aerodrome Forecast
Issued by NWS Fort Wayne, IN

Home | Current Version | Previous Version | Text Only | Print | Product List | Glossary Off
Versions: 1 2 3 4 5 6 7 8 9 10 11 12 13 14 15

000
FTUS43 KIWX 041700
TAFFWA
TAF
KFWA 041720Z 0418/0518 22012KT P6SM FEW027 SCT050 OVC090
     FM050100 28005KT 6SM -SHRA BR SCT030 OVC060
     FM050600 12005KT 6SM -SHRA OVC035=

USA.gov is the U.S. government's official web portal to all federal, state and local government web resources and services.